Time;durP1;ratioP1;P1;durP2;ratioP2;P2;SDS_P1;SDS_P2;PMS_P1;PMS_P2;Temp;Humidity;BMP_temperature;BMP_pressure;BME280_temperature;BME280_humidity;BME280_pressure;Samples;Min_cycle;Max_cycle;Signal;HPM_P1;HPM_P2
2021/06/25 00:01:04;;;;;;;3.75;2.28;;;;;;;14.02;74.44;101532.75;4895484;29;20595;-41
2021/06/25 00:03:31;;;;;;;4.72;2.08;;;;;;;14.02;74.55;101518.81;4897088;29;20071;-43
2021/06/25 00:05:58;;;;;;;6.30;2.10;;;;;;;14.00;74.49;101520.34;4893688;29;20078;-41
2021/06/25 00:08:24;;;;;;;3.60;2.33;;;;;;;14.00;74.12;101526.69;4909325;29;20080;-41
2021/06/25 00:10:51;;;;;;;3.85;2.17;;;;;;;13.97;74.27;101526.59;4896443;29;20127;-42
2021/06/25 00:13:19;;;;;;;8.10;2.45;;;;;;;13.92;74.12;101519.31;4895946;29;20562;-42
2021/06/25 00:15:45;;;;;;;3.70;1.70;;;;;;;13.90;74.13;101520.78;4895919;29;20053;-42
2021/06/25 00:18:13;;;;;;;6.88;2.38;;;;;;;13.88;74.04;101521.13;4895962;29;20053;-41
2021/06/25 00:20:40;;;;;;;5.50;2.55;;;;;;;13.85;74.19;101521.84;4896386;29;20061;-42
2021/06/25 00:23:07;;;;;;;3.85;2.22;;;;;;;13.84;73.80;101516.63;4902752;29;20112;-43
2021/06/25 00:25:34;;;;;;;7.28;2.22;;;;;;;13.77;73.81;101517.19;4896280;29;20313;-41
2021/06/25 00:28:01;;;;;;;3.90;2.80;;;;;;;13.79;73.58;101503.72;4901992;29;20040;-46
2021/06/25 00:30:28;;;;;;;3.22;2.08;;;;;;;13.80;73.55;101499.81;4896461;29;20059;-42
2021/06/25 00:32:55;;;;;;;8.07;2.80;;;;;;;13.83;73.44;101501.91;4904466;29;20693;-42
2021/06/25 00:35:22;;;;;;;5.07;2.15;;;;;;;13.79;73.49;101503.72;4894890;29;20046;-41
2021/06/25 00:37:49;;;;;;;4.93;2.30;;;;;;;13.80;73.69;101505.38;4893901;29;20132;-47
2021/06/25 00:40:16;;;;;;;5.18;2.10;;;;;;;13.80;73.94;101505.38;4896012;29;20462;-43
2021/06/25 00:42:46;;;;;;;4.63;2.60;;;;;;;13.82;73.64;101491.91;4895451;29;20055;-42
2021/06/25 00:45:15;;;;;;;7.13;2.38;;;;;;;13.80;73.64;101494.25;4895384;29;20139;-41
2021/06/25 00:47:44;;;;;;;5.05;2.15;;;;;;;13.78;73.55;101495.75;4896817;29;20395;-42
2021/06/25 00:50:13;;;;;;;3.75;2.10;;;;;;;13.78;73.65;101499.34;4895980;29;20072;-43
2021/06/25 00:52:41;;;;;;;4.03;2.13;;;;;;;13.77;73.94;101506.06;4895343;29;20985;-42
2021/06/25 00:55:09;;;;;;;4.93;2.25;;;;;;;13.78;73.96;101504.09;4895778;29;20096;-42
2021/06/25 00:57:37;;;;;;;4.07;2.15;;;;;;;13.72;74.11;101503.50;4894955;29;20072;-42
2021/06/25 01:00:07;;;;;;;6.07;1.90;;;;;;;13.67;74.31;101498.19;4905379;29;20112;-42
2021/06/25 01:02:34;;;;;;;8.35;2.30;;;;;;;13.67;74.33;101500.97;4895369;29;20103;-41
2021/06/25 01:05:01;;;;;;;9.40;2.53;;;;;;;13.68;74.19;101504.56;4895639;29;20048;-41
2021/06/25 01:07:31;;;;;;;4.10;2.28;;;;;;;13.63;74.06;101500.06;4896121;29;20128;-44
2021/06/25 01:10:00;;;;;;;4.32;1.80;;;;;;;13.55;73.70;101512.09;4894246;29;20082;-43
2021/06/25 01:12:28;;;;;;;3.58;1.67;;;;;;;13.47;73.36;101506.63;4894885;29;20139;-41
2021/06/25 01:14:54;;;;;;;5.60;1.83;;;;;;;13.44;72.96;101508.16;4904329;29;20135;-42
2021/06/25 01:17:36;;;;;;;2.90;1.48;;;;;;;13.29;71.78;101520.75;4907733;29;20040;-42
2021/06/25 01:20:16;;;;;;;5.50;1.80;;;;;;;13.16;72.27;101523.81;4885162;29;20499;-43
2021/06/25 01:22:43;;;;;;;4.80;2.10;;;;;;;13.12;72.38;101534.03;4900016;29;20055;-43
2021/06/25 01:25:35;;;;;;;8.27;1.70;;;;;;;12.98;71.79;101530.69;4896085;29;20155;-41
2021/06/25 01:28:08;;;;;;;6.93;2.00;;;;;;;12.92;71.76;101529.31;4895970;29;20095;-42
2021/06/25 01:30:45;;;;;;;5.00;1.80;;;;;;;12.92;71.97;101524.53;4899465;29;20136;-42
2021/06/25 01:33:14;;;;;;;6.22;1.70;;;;;;;12.87;71.64;101526.75;4894444;29;20574;-42
2021/06/25 01:35:41;;;;;;;4.65;2.33;;;;;;;12.88;71.47;101517.22;4895201;29;20056;-41
2021/06/25 01:38:09;;;;;;;6.40;1.58;;;;;;;12.88;71.33;101512.50;4894389;29;20095;-42
2021/06/25 01:40:37;;;;;;;4.20;1.50;;;;;;;12.88;71.18;101517.22;4896078;29;20051;-42
2021/06/25 01:43:06;;;;;;;2.97;1.60;;;;;;;12.80;70.94;101519.75;4892157;29;20554;-43
2021/06/25 01:45:37;;;;;;;5.40;1.58;;;;;;;12.79;71.05;101517.31;4897978;29;20037;-41
2021/06/25 01:48:04;;;;;;;4.30;1.77;;;;;;;12.77;71.06;101523.22;4902131;29;20048;-43
2021/06/25 01:50:36;;;;;;;4.43;1.95;;;;;;;12.67;70.17;101526.44;4905656;29;20138;-42
2021/06/25 01:53:05;;;;;;;5.13;1.80;;;;;;;12.60;70.62;101534.47;4899095;29;20072;-41
2021/06/25 01:55:39;;;;;;;4.22;1.65;;;;;;;12.65;70.60;101525.97;4895656;29;20535;-43
2021/06/25 01:58:28;;;;;;;3.20;1.08;;;;;;;12.63;70.04;101522.69;4894621;29;20049;-42
2021/06/25 02:01:16;;;;;;;4.15;1.42;;;;;;;12.59;69.66;101505.09;4897599;29;20072;-42
2021/06/25 02:03:45;;;;;;;5.65;1.38;;;;;;;12.59;70.20;101499.53;4898907;29;20079;-42
2021/06/25 02:06:13;;;;;;;3.45;1.60;;;;;;;12.63;70.16;101507.97;4897938;29;20048;-43
2021/06/25 02:08:41;;;;;;;7.70;1.77;;;;;;;12.68;69.48;101525.25;4898427;29;20056;-42
2021/06/25 02:11:09;;;;;;;6.70;1.92;;;;;;;12.70;69.63;101514.63;4899173;29;20037;-42
2021/06/25 02:13:36;;;;;;;5.93;1.20;;;;;;;12.71;69.50;101507.91;4893596;29;20060;-42
2021/06/25 02:16:03;;;;;;;7.43;2.00;;;;;;;12.74;69.45;101511.97;4898272;29;20057;-42
2021/06/25 02:18:30;;;;;;;5.63;1.40;;;;;;;12.74;69.43;101518.34;4909293;29;20051;-41
2021/06/25 02:20:57;;;;;;;4.20;1.77;;;;;;;12.74;69.35;101515.56;4902161;29;20060;-42
2021/06/25 02:23:24;;;;;;;1.55;1.08;;;;;;;12.72;69.34;101506.75;4902207;29;20152;-42
2021/06/25 02:25:50;;;;;;;9.68;1.75;;;;;;;12.68;69.21;101507.78;4899430;29;20140;-43
2021/06/25 02:28:17;;;;;;;4.68;1.50;;;;;;;12.59;69.37;101510.66;4903916;29;20118;-42
2021/06/25 02:30:44;;;;;;;3.72;1.40;;;;;;;12.48;69.27;101514.97;4903697;29;20139;-42
2021/06/25 02:33:11;;;;;;;2.15;1.00;;;;;;;12.46;68.98;101516.47;4898033;29;20495;-45
2021/06/25 02:35:37;;;;;;;3.78;1.30;;;;;;;12.47;68.96;101504.22;4908151;29;20431;-43
2021/06/25 02:38:06;;;;;;;5.68;1.63;;;;;;;12.43;68.96;101501.31;4899345;29;20073;-41
2021/06/25 02:40:33;;;;;;;2.00;1.13;;;;;;;12.38;68.90;101509.03;4909723;29;20052;-42
2021/06/25 02:43:01;;;;;;;4.90;1.20;;;;;;;12.40;68.92;101507.53;4897090;29;20131;-42
2021/06/25 02:45:27;;;;;;;3.60;1.45;;;;;;;12.44;69.03;101491.84;4897897;29;20075;-42
2021/06/25 02:47:54;;;;;;;4.65;0.95;;;;;;;12.47;68.89;101507.78;4898502;29;20044;-42
2021/06/25 02:50:21;;;;;;;5.25;1.50;;;;;;;12.42;68.92;101505.22;4898433;29;20044;-42
2021/06/25 02:52:48;;;;;;;4.47;1.10;;;;;;;12.42;68.67;101502.44;4897967;29;20091;-43
2021/06/25 02:55:15;;;;;;;4.78;1.30;;;;;;;12.45;69.03;101496.22;4895004;29;20084;-42
2021/06/25 02:57:42;;;;;;;4.32;1.08;;;;;;;12.42;68.77;101490.50;4898466;29;20048;-42
2021/06/25 03:00:13;;;;;;;5.57;1.30;;;;;;;12.45;68.78;101475.94;4897406;29;20044;-42
2021/06/25 03:02:41;;;;;;;4.33;1.33;;;;;;;12.42;68.76;101484.97;4898246;29;20395;-44
2021/06/25 03:05:11;;;;;;;3.50;0.90;;;;;;;12.41;68.85;101480.56;4905381;29;20055;-44
2021/06/25 03:07:38;;;;;;;2.83;1.30;;;;;;;12.38;68.80;101476.53;4900281;29;20040;-43
2021/06/25 03:10:06;;;;;;;5.05;1.83;;;;;;;12.36;68.79;101472.47;4897524;29;20059;-44
2021/06/25 03:12:34;;;;;;;4.50;1.40;;;;;;;12.35;68.95;101482.75;4897118;29;20044;-43
2021/06/25 03:15:01;;;;;;;8.40;1.60;;;;;;;12.28;68.99;101468.59;4895178;29;20081;-46
2021/06/25 03:17:28;;;;;;;10.13;1.40;;;;;;;12.24;68.87;101470.41;4897914;29;20394;-42
2021/06/25 03:19:54;;;;;;;7.07;1.40;;;;;;;12.16;68.99;101461.00;4897855;29;20139;-43
2021/06/25 03:22:21;;;;;;;3.13;2.03;;;;;;;12.12;69.15;101459.25;4906362;29;20569;-42
2021/06/25 03:24:48;;;;;;;4.05;1.13;;;;;;;12.09;69.12;101454.38;4898451;29;20091;-42
2021/06/25 03:27:15;;;;;;;8.27;1.23;;;;;;;12.02;69.05;101452.13;4905674;29;20052;-42
2021/06/25 03:29:42;;;;;;;7.80;1.27;;;;;;;11.93;69.02;101442.25;4901562;29;20088;-42
2021/06/25 03:32:08;;;;;;;7.40;1.65;;;;;;;11.89;69.10;101441.28;4897381;29;20059;-43
2021/06/25 03:34:36;;;;;;;6.07;2.58;;;;;;;11.84;69.11;101444.25;4897662;29;20059;-42
2021/06/25 03:37:03;;;;;;;4.63;1.20;;;;;;;11.80;69.02;101437.78;4906767;29;20525;-42
2021/06/25 03:39:29;;;;;;;4.45;1.20;;;;;;;11.75;69.10;101440.75;4897280;29;20082;-42
2021/06/25 03:41:57;;;;;;;3.65;1.27;;;;;;;11.65;69.06;101452.19;4887230;29;20052;-41
2021/06/25 03:44:23;;;;;;;8.50;1.17;;;;;;;11.60;69.27;101455.97;4896957;29;20040;-42
2021/06/25 03:46:50;;;;;;;5.35;1.00;;;;;;;11.57;69.49;101446.34;4896934;29;20053;-41
2021/06/25 03:49:17;;;;;;;2.65;0.95;;;;;;;11.56;69.51;101444.75;4897447;29;20139;-42
2021/06/25 03:51:44;;;;;;;4.57;0.90;;;;;;;11.49;69.77;101444.44;4895424;29;20143;-41
2021/06/25 03:54:11;;;;;;;4.78;1.05;;;;;;;11.48;69.81;101453.09;4891156;29;20052;-42
2021/06/25 03:56:37;;;;;;;5.65;1.60;;;;;;;11.49;69.64;101433.34;4897031;29;20036;-42
2021/06/25 03:59:04;;;;;;;5.13;1.10;;;;;;;11.50;69.82;101440.53;4897075;29;20045;-42
2021/06/25 04:01:31;;;;;;;5.05;1.67;;;;;;;11.51;69.67;101456.03;4896759;29;20055;-42
2021/06/25 04:03:58;;;;;;;9.80;3.28;;;;;;;11.51;69.86;101452.44;4906194;29;20521;-42
2021/06/25 04:06:24;;;;;;;5.57;1.20;;;;;;;11.55;70.01;101459.75;4903511;29;20075;-43
2021/06/25 04:08:51;;;;;;;4.75;1.00;;;;;;;11.60;70.03;101451.22;4897538;29;20087;-42
2021/06/25 04:11:18;;;;;;;4.95;1.30;;;;;;;11.67;70.02;101455.44;4896950;29;20083;-42
2021/06/25 04:13:46;;;;;;;6.38;1.48;;;;;;;11.73;69.99;101454.16;4900437;29;20048;-42
2021/06/25 04:16:14;;;;;;;4.78;1.02;;;;;;;11.77;69.91;101449.53;4896740;29;20473;-42
2021/06/25 04:18:41;;;;;;;3.58;1.13;;;;;;;11.82;69.93;101447.38;4896830;29;20085;-42
2021/06/25 04:21:08;;;;;;;2.55;0.80;;;;;;;11.84;69.74;101449.81;4896386;29;20558;-41
2021/06/25 04:23:35;;;;;;;5.53;1.30;;;;;;;11.80;69.77;101443.31;4915687;29;20132;-42
2021/06/25 04:26:02;;;;;;;5.03;1.63;;;;;;;11.86;69.77;101444.75;4895635;29;20127;-42
2021/06/25 04:28:29;;;;;;;3.67;0.82;;;;;;;11.87;69.74;101449.13;4894967;29;20127;-42
2021/06/25 04:30:56;;;;;;;6.43;1.65;;;;;;;11.86;69.74;101441.97;4896433;29;20451;-43
2021/06/25 04:33:24;;;;;;;5.43;1.63;;;;;;;11.90;69.67;101437.38;4895615;29;20087;-42
2021/06/25 04:35:53;;;;;;;7.95;2.25;;;;;;;11.86;69.78;101437.22;4888882;29;20490;-42
2021/06/25 04:38:21;;;;;;;4.57;1.77;;;;;;;11.86;69.62;101450.31;4895693;29;20506;-42
2021/06/25 04:40:49;;;;;;;7.25;2.13;;;;;;;11.90;69.57;101452.06;4904742;29;20131;-43
2021/06/25 04:43:18;;;;;;;3.10;1.95;;;;;;;11.84;69.75;101452.59;4896078;29;20131;-44
2021/06/25 04:45:45;;;;;;;8.10;1.60;;;;;;;11.82;69.68;101452.94;4896409;29;20075;-41
2021/06/25 04:48:16;;;;;;;1.70;1.02;;;;;;;11.84;69.92;101442.31;4895817;29;20054;-42
2021/06/25 04:50:44;;;;;;;7.75;1.30;;;;;;;11.84;69.88;101442.31;4896784;29;20100;-43
2021/06/25 04:53:11;;;;;;;5.65;1.77;;;;;;;11.86;69.78;101442.78;4895124;29;20498;-42
2021/06/25 04:55:41;;;;;;;3.25;1.30;;;;;;;11.89;69.97;101441.28;4896895;29;20139;-42
2021/06/25 04:58:10;;;;;;;3.03;0.77;;;;;;;11.88;69.70;101442.44;4895649;29;20079;-42
2021/06/25 05:00:37;;;;;;;3.47;1.10;;;;;;;11.90;69.71;101442.91;4895062;29;20052;-42
2021/06/25 05:03:05;;;;;;;2.88;1.23;;;;;;;11.93;69.62;101440.28;4896519;29;20131;-41
2021/06/25 05:05:33;;;;;;;8.80;1.60;;;;;;;11.91;69.62;101439.00;4911689;29;20111;-42
2021/06/25 05:08:00;;;;;;;5.10;1.58;;;;;;;11.89;69.80;101452.38;4895694;29;20123;-42
2021/06/25 05:10:27;;;;;;;7.57;1.65;;;;;;;11.82;69.76;101454.88;4895132;29;20055;-42
2021/06/25 05:12:55;;;;;;;5.70;1.40;;;;;;;11.83;69.71;101457.34;4888309;29;20044;-43
2021/06/25 05:15:22;;;;;;;5.78;1.38;;;;;;;11.81;69.85;101461.59;4888554;29;20052;-41
2021/06/25 05:17:50;;;;;;;8.63;1.50;;;;;;;11.83;69.84;101448.19;4895875;29;20072;-42
2021/06/25 05:20:40;;;;;;;3.42;1.20;;;;;;;11.81;69.87;101461.59;4893278;29;20052;-42
2021/06/25 05:23:09;;;;;;;7.13;1.30;;;;;;;11.83;69.84;101459.31;4897163;29;20028;-43
2021/06/25 05:25:37;;;;;;;5.90;1.23;;;;;;;11.84;69.96;101455.34;4894482;29;20056;-43
2021/06/25 05:28:05;;;;;;;5.72;1.55;;;;;;;11.85;70.05;101457.00;4896805;29;20064;-41
2021/06/25 05:30:32;;;;;;;4.65;2.00;;;;;;;11.85;70.12;101470.88;4897015;29;20131;-42
2021/06/25 05:33:01;;;;;;;6.38;2.03;;;;;;;11.87;70.13;101472.16;4895748;29;20068;-43
2021/06/25 05:35:32;;;;;;;5.40;1.45;;;;;;;11.93;70.25;101470.81;4896030;29;20068;-44
2021/06/25 05:38:00;;;;;;;3.72;1.20;;;;;;;11.94;70.36;101482.72;4895080;29;20107;-42
2021/06/25 05:40:26;;;;;;;7.65;2.33;;;;;;;11.94;70.32;101472.41;4911582;29;20134;-44
2021/06/25 05:42:54;;;;;;;7.90;2.17;;;;;;;11.97;70.34;101480.06;4901293;29;20510;-42
2021/06/25 05:45:22;;;;;;;4.63;1.90;;;;;;;12.00;70.50;101467.50;4885555;29;20390;-42
2021/06/25 05:47:48;;;;;;;5.93;1.55;;;;;;;12.03;70.27;101469.59;4890670;29;20075;-42
2021/06/25 05:50:16;;;;;;;6.07;1.42;;;;;;;12.06;70.27;101463.38;4895266;29;20127;-42
2021/06/25 05:52:43;;;;;;;4.28;1.85;;;;;;;12.08;70.23;101458.28;4896302;29;20131;-43
2021/06/25 05:55:11;;;;;;;4.45;2.15;;;;;;;12.04;70.29;101474.00;4881000;29;20064;-42
2021/06/25 05:57:38;;;;;;;4.80;1.83;;;;;;;12.00;70.32;101465.53;4891599;29;20132;-42
2021/06/25 06:00:07;;;;;;;7.20;1.75;;;;;;;12.05;70.26;101462.56;4896189;29;20132;-42
2021/06/25 06:02:34;;;;;;;6.38;1.70;;;;;;;12.11;70.26;101465.94;4898429;29;20058;-42
2021/06/25 06:05:01;;;;;;;3.53;1.60;;;;;;;12.13;70.36;101466.41;4907808;29;20127;-42
2021/06/25 06:07:29;;;;;;;4.18;1.70;;;;;;;12.23;70.20;101464.03;4900818;29;20118;-42
2021/06/25 06:09:55;;;;;;;5.85;1.98;;;;;;;12.30;70.04;101463.50;4896248;29;20119;-42
2021/06/25 06:12:22;;;;;;;6.32;1.90;;;;;;;12.35;70.19;101479.16;4895419;29;20127;-42
2021/06/25 06:14:51;;;;;;;7.82;1.60;;;;;;;12.38;70.19;101478.47;4894943;29;20495;-42
2021/06/25 06:17:20;;;;;;;12.27;2.58;;;;;;;12.38;69.94;101479.28;4918444;29;20135;-42
2021/06/25 06:19:52;;;;;;;5.57;1.50;;;;;;;12.38;70.03;101468.19;4895624;29;20575;-44
2021/06/25 06:33:57;;;;;;;7.53;2.20;;;;;;;12.42;69.94;101494.13;4910506;29;20455;-42
2021/06/25 06:36:30;;;;;;;7.85;1.63;;;;;;;12.42;69.94;101483.00;4897950;29;20055;-41
2021/06/25 06:38:59;;;;;;;5.50;1.90;;;;;;;12.42;69.99;101471.06;4902084;29;20040;-42
2021/06/25 06:41:27;;;;;;;5.50;1.70;;;;;;;12.39;70.09;101478.13;4899297;29;20083;-42
2021/06/25 06:43:56;;;;;;;6.85;2.00;;;;;;;12.38;70.20;101473.75;4898406;29;20131;-43
2021/06/25 06:46:23;;;;;;;6.30;1.73;;;;;;;12.40;70.08;101468.66;4893888;29;20127;-43
2021/06/25 06:48:51;;;;;;;9.20;1.85;;;;;;;12.38;69.96;101470.16;4898754;29;20060;-42
2021/06/25 06:51:19;;;;;;;9.10;3.45;;;;;;;12.42;70.06;101474.66;4897861;29;20447;-42
2021/06/25 06:53:46;;;;;;;4.70;1.88;;;;;;;12.45;69.99;101470.41;4890324;29;20104;-45
2021/06/25 06:56:16;;;;;;;14.85;2.40;;;;;;;12.39;69.93;101469.78;4896227;29;20099;-44
2021/06/25 06:58:45;;;;;;;7.40;1.90;;;;;;;12.36;69.98;101476.06;4899663;29;20083;-43
2021/06/25 07:01:12;;;;;;;5.97;2.08;;;;;;;12.38;69.99;101479.28;4898365;29;20576;-42
2021/06/25 07:03:55;;;;;;;9.85;3.38;;;;;;;12.38;69.96;101482.06;4909192;29;20380;-42
2021/06/25 07:06:22;;;;;;;10.02;2.83;;;;;;;12.37;70.01;101491.53;4903617;29;20086;-42
2021/06/25 07:08:49;;;;;;;6.10;1.70;;;;;;;12.32;70.02;101477.88;4902484;29;20041;-44
2021/06/25 07:11:16;;;;;;;5.57;2.63;;;;;;;12.32;70.13;101475.09;4898396;29;20051;-43
2021/06/25 07:13:43;;;;;;;6.45;2.38;;;;;;;12.36;70.08;101476.06;4902508;29;20059;-41
2021/06/25 07:16:14;;;;;;;8.30;2.60;;;;;;;12.48;70.13;101480.84;4902944;29;20091;-42
2021/06/25 07:18:42;;;;;;;8.55;1.98;;;;;;;12.61;70.16;101483.31;4898318;29;20049;-42
2021/06/25 07:21:10;;;;;;;8.75;2.25;;;;;;;12.62;69.99;101487.75;4902660;29;20049;-42
2021/06/25 07:23:37;;;;;;;6.95;1.75;;;;;;;12.60;69.71;101492.00;4904780;29;20060;-42
2021/06/25 07:26:03;;;;;;;9.68;2.65;;;;;;;12.59;69.76;101493.97;4903125;29;20045;-41
2021/06/25 07:28:30;;;;;;;10.75;2.28;;;;;;;12.58;70.08;101500.66;4885397;29;20515;-45
2021/06/25 07:30:57;;;;;;;8.48;2.10;;;;;;;12.60;69.81;101489.25;4891919;29;20061;-43
2021/06/25 07:33:27;;;;;;;9.05;4.05;;;;;;;12.64;70.10;101499.31;4880213;29;20104;-42
2021/06/25 07:35:55;;;;;;;9.38;2.17;;;;;;;12.62;70.05;101496.06;4892008;29;20064;-42
2021/06/25 07:38:22;;;;;;;7.95;1.98;;;;;;;12.69;69.91;101484.41;4892541;29;20376;-42
2021/06/25 07:40:49;;;;;;;6.25;1.88;;;;;;;12.79;69.75;101495.91;4899775;29;20058;-42
2021/06/25 07:43:19;;;;;;;7.95;1.90;;;;;;;12.95;69.48;101495.25;4891832;29;20570;-42
2021/06/25 07:45:46;;;;;;;8.00;1.77;;;;;;;12.94;69.36;101500.03;4892270;29;20465;-43
2021/06/25 07:48:14;;;;;;;6.07;1.88;;;;;;;12.93;69.41;101497.56;4892143;29;20068;-42
2021/06/25 07:50:41;;;;;;;10.68;3.92;;;;;;;12.96;69.56;101485.75;4892832;29;20382;-43
2021/06/25 07:53:10;;;;;;;9.30;1.77;;;;;;;12.97;69.28;101493.78;4893296;29;20045;-41
2021/06/25 07:55:44;;;;;;;9.38;2.30;;;;;;;13.05;69.43;101501.19;4892344;29;20044;-42
2021/06/25 07:58:12;;;;;;;6.63;1.67;;;;;;;13.06;68.99;101490.88;4902093;29;20095;-42
2021/06/25 08:00:40;;;;;;;8.60;1.50;;;;;;;13.02;69.02;101501.06;4892989;29;20071;-41
2021/06/25 08:03:07;;;;;;;10.75;2.72;;;;;;;13.00;68.86;101489.50;4889817;29;20139;-42
2021/06/25 08:05:35;;;;;;;10.07;1.80;;;;;;;13.03;68.86;101495.16;4893476;29;20099;-43
2021/06/25 08:08:01;;;;;;;7.82;1.33;;;;;;;13.05;68.43;101490.06;4894957;29;20061;-43
2021/06/25 08:10:28;;;;;;;7.65;1.92;;;;;;;13.12;68.53;101498.69;4903904;29;20048;-43
2021/06/25 08:12:56;;;;;;;7.93;1.67;;;;;;;13.19;68.40;101501.72;4890385;29;20051;-48
2021/06/25 08:15:23;;;;;;;6.78;1.67;;;;;;;13.20;68.27;101503.34;4890156;29;20051;-45
2021/06/25 08:17:50;;;;;;;6.15;1.52;;;;;;;13.25;68.45;101497.56;4891559;29;20105;-43
2021/06/25 08:20:18;;;;;;;7.45;2.00;;;;;;;13.25;68.08;101500.34;4889041;29;20056;-44
2021/06/25 08:22:45;;;;;;;6.93;1.23;;;;;;;13.25;68.10;101510.66;4893106;29;20057;-47
2021/06/25 08:25:12;;;;;;;6.25;1.55;;;;;;;13.26;68.04;101507.50;4892917;29;20099;-43
2021/06/25 08:27:38;;;;;;;11.05;1.95;;;;;;;13.28;67.68;101505.22;4890415;29;20044;-43
2021/06/25 08:30:06;;;;;;;8.55;2.47;;;;;;;13.34;67.94;101503.81;4883743;29;20040;-43
2021/06/25 08:32:34;;;;;;;11.25;2.80;;;;;;;13.40;67.62;101499.66;4891670;29;20562;-43
2021/06/25 08:35:02;;;;;;;2.97;1.30;;;;;;;13.48;67.54;101506.28;4889109;29;20135;-42
2021/06/25 08:37:29;;;;;;;7.60;1.77;;;;;;;13.49;67.33;101495.97;4892140;29;20083;-45
2021/06/25 08:39:55;;;;;;;4.25;1.25;;;;;;;13.54;67.07;101506.88;4889670;29;20532;-43
2021/06/25 08:42:23;;;;;;;4.22;1.40;;;;;;;13.58;66.85;101503.03;4894897;29;20127;-43
2021/06/25 08:44:50;;;;;;;7.75;1.55;;;;;;;13.59;67.02;101504.66;4887735;29;20052;-42
2021/06/25 08:47:17;;;;;;;8.43;1.40;;;;;;;13.61;66.78;101501.56;4892410;29;20079;-42
2021/06/25 08:49:50;;;;;;;3.90;1.13;;;;;;;13.63;66.84;101500.06;4894069;29;20100;-42
2021/06/25 08:52:17;;;;;;;5.75;1.50;;;;;;;13.71;66.84;101501.91;4895851;29;20527;-42
2021/06/25 08:54:43;;;;;;;6.13;1.83;;;;;;;13.67;66.52;101503.75;4891501;29;20044;-42
2021/06/25 08:57:10;;;;;;;4.25;1.58;;;;;;;13.61;66.51;101502.34;4888370;29;20064;-42
2021/06/25 08:59:37;;;;;;;7.10;1.70;;;;;;;13.52;66.70;101506.41;4890677;29;20574;-43
2021/06/25 09:02:04;;;;;;;12.43;2.75;;;;;;;13.45;66.79;101500.63;4891468;29;20465;-42
2021/06/25 09:04:41;;;;;;;7.20;2.05;;;;;;;13.36;66.92;101518.22;4891190;29;20044;-47
2021/06/25 09:07:09;;;;;;;5.00;1.65;;;;;;;13.26;67.24;101503.94;4896606;29;20431;-44
2021/06/25 09:09:44;;;;;;;8.93;2.10;;;;;;;13.21;67.54;101512.50;4895498;29;20446;-43
2021/06/25 09:12:22;;;;;;;5.43;1.50;;;;;;;13.23;67.44;101507.41;4895378;29;20491;-42
2021/06/25 09:15:11;;;;;;;5.72;1.92;;;;;;;13.18;67.36;101505.69;4886218;29;20100;-45
2021/06/25 09:18:02;;;;;;;4.20;1.80;;;;;;;13.12;67.05;101511.78;4889730;29;20414;-45
2021/06/25 09:20:40;;;;;;;6.93;1.60;;;;;;;13.15;67.26;101514.69;4894778;29;20402;-41
2021/06/25 09:23:13;;;;;;;5.30;1.45;;;;;;;13.18;67.12;101504.84;4894146;29;20190;-44
2021/06/25 09:25:49;;;;;;;3.65;1.95;;;;;;;13.17;67.38;101509.59;4873939;29;20056;-44
2021/06/25 09:28:37;;;;;;;6.68;1.67;;;;;;;13.18;67.05;101511.25;4888299;29;20047;-44
2021/06/25 09:31:26;;;;;;;5.30;1.52;;;;;;;13.14;67.21;101504.72;4891514;29;20058;-45
2021/06/25 09:33:55;;;;;;;8.18;1.85;;;;;;;13.26;67.23;101506.72;4891532;29;20051;-44
2021/06/25 09:36:23;;;;;;;8.60;1.70;;;;;;;13.31;67.51;101498.97;4890346;29;20044;-44
2021/06/25 09:39:00;;;;;;;6.65;1.88;;;;;;;13.41;67.59;101497.72;4891484;29;20124;-43
2021/06/25 09:41:28;;;;;;;5.60;1.95;;;;;;;13.50;67.34;101512.34;4886921;29;20104;-42
2021/06/25 09:44:08;;;;;;;6.95;1.42;;;;;;;13.51;67.05;101516.72;4891273;29;20123;-42
2021/06/25 09:46:37;;;;;;;5.75;2.13;;;;;;;13.62;67.16;101514.28;4889825;29;20120;-42
2021/06/25 09:49:09;;;;;;;7.68;1.48;;;;;;;13.69;67.28;101520.91;4890292;29;20059;-45
2021/06/25 09:51:38;;;;;;;7.57;2.42;;;;;;;13.78;67.50;101521.63;4874152;29;20064;-43
2021/06/25 09:54:13;;;;;;;8.50;2.42;;;;;;;13.76;67.32;101523.94;4891914;29;20574;-41
2021/06/25 09:56:52;;;;;;;6.35;2.28;;;;;;;13.69;67.74;101532.03;4888816;29;20104;-41
2021/06/25 10:02:21;;;;;;;5.55;1.95;;;;;;;13.53;67.83;101528.31;4889060;29;20147;-42
2021/06/25 10:04:49;;;;;;;4.90;2.00;;;;;;;13.52;68.17;101526.69;4890409;29;20410;-43
2021/06/25 10:07:25;;;;;;;7.05;2.25;;;;;;;13.53;68.28;101522.75;4897587;29;20060;-42
2021/06/25 10:09:54;;;;;;;8.15;2.10;;;;;;;13.53;68.31;101535.88;4899930;29;20056;-43
2021/06/25 10:12:22;;;;;;;5.63;2.40;;;;;;;13.51;68.38;101530.63;4897199;29;20172;-43
2021/06/25 10:14:51;;;;;;;4.13;1.52;;;;;;;13.53;68.57;101528.31;4891861;29;20503;-43
2021/06/25 10:17:18;;;;;;;6.50;1.63;;;;;;;13.54;68.63;101541.06;4894301;29;20052;-46
2021/06/25 10:19:50;;;;;;;6.60;1.85;;;;;;;13.59;68.66;101538.06;4892997;29;20137;-41
2021/06/25 10:22:20;;;;;;;5.65;1.90;;;;;;;13.65;68.66;101542.25;4896210;29;20044;-42
2021/06/25 10:24:49;;;;;;;7.20;1.70;;;;;;;13.64;68.33;101545.34;4894451;29;20045;-46
2021/06/25 10:27:20;;;;;;;6.57;1.73;;;;;;;13.58;68.34;101544.78;4893397;29;20615;-45
2021/06/25 10:29:49;;;;;;;8.25;1.27;;;;;;;13.57;68.17;101540.38;4894599;29;20055;-42
2021/06/25 10:32:17;;;;;;;8.15;2.28;;;;;;;13.65;68.31;101531.13;4894231;29;20156;-41
2021/06/25 10:34:45;;;;;;;5.10;1.35;;;;;;;13.67;68.38;101545.50;4893172;29;20155;-42
2021/06/25 10:37:21;;;;;;;5.93;1.42;;;;;;;13.67;68.24;101534.34;4877135;29;20059;-42
2021/06/25 10:39:49;;;;;;;5.53;1.17;;;;;;;13.68;68.21;101544.34;4896260;29;20056;-42
2021/06/25 10:42:19;;;;;;;3.42;1.05;;;;;;;13.73;68.32;101546.06;4894318;29;20521;-44
2021/06/25 10:44:53;;;;;;;2.13;0.85;;;;;;;13.77;67.85;101536.69;4893074;29;20124;-42
2021/06/25 10:47:24;;;;;;;6.32;2.38;;;;;;;13.77;67.61;101547.00;4894359;29;20120;-44
2021/06/25 10:50:00;;;;;;;3.53;1.02;;;;;;;13.79;67.80;101547.47;4894474;29;20057;-42
2021/06/25 10:52:31;;;;;;;5.90;1.63;;;;;;;13.72;68.02;101548.03;4885129;29;20051;-46
2021/06/25 10:55:07;;;;;;;5.07;1.10;;;;;;;13.69;68.47;101543.16;4890669;29;20052;-42
2021/06/25 10:57:36;;;;;;;3.00;0.90;;;;;;;13.66;68.35;101549.41;4893373;29;20044;-43
2021/06/25 11:00:07;;;;;;;4.15;1.10;;;;;;;13.57;68.83;101542.34;4892149;29;20049;-43
2021/06/25 11:02:44;;;;;;;5.82;1.50;;;;;;;13.59;69.07;101543.63;4891943;29;20080;-43
2021/06/25 11:05:27;;;;;;;3.70;1.30;;;;;;;13.68;69.28;101547.13;4891957;29;20830;-44
2021/06/25 11:08:02;;;;;;;4.68;1.00;;;;;;;13.75;69.01;101543.75;4891121;29;20115;-44
2021/06/25 11:10:32;;;;;;;5.38;1.00;;;;;;;13.80;68.93;101549.91;4891265;29;20800;-46
2021/06/25 11:13:11;;;;;;;3.60;1.13;;;;;;;13.85;69.71;101549.66;4887751;29;20451;-43
2021/06/25 11:15:46;;;;;;;4.25;1.00;;;;;;;13.92;69.61;101536.00;4895107;29;20758;-44
2021/06/25 11:18:18;;;;;;;5.93;0.90;;;;;;;13.96;69.75;101542.47;4896266;29;20131;-42
2021/06/25 11:21:04;;;;;;;3.15;0.93;;;;;;;14.06;69.51;101545.97;4893150;29;20052;-45
2021/06/25 11:23:38;;;;;;;6.40;1.05;;;;;;;14.04;69.42;101541.56;4900362;29;20462;-43
2021/06/25 11:26:22;;;;;;;3.55;0.70;;;;;;;14.08;69.49;101544.47;4902266;29;20052;-45
2021/06/25 11:28:54;;;;;;;3.65;0.70;;;;;;;14.14;69.51;101548.59;4891726;29;20053;-43
2021/06/25 11:31:30;;;;;;;2.45;0.52;;;;;;;14.13;69.17;101555.34;4894554;29;20060;-45
2021/06/25 11:34:01;;;;;;;1.25;0.70;;;;;;;14.15;68.94;101544.66;4877057;29;20131;-41
2021/06/25 11:36:53;;;;;;;2.80;0.70;;;;;;;14.17;68.18;101555.44;4903263;29;20096;-43
2021/06/25 11:39:30;;;;;;;0.95;0.82;;;;;;;14.18;68.14;101555.13;4893817;29;20060;-42
2021/06/25 11:42:03;;;;;;;2.13;0.68;;;;;;;14.02;67.87;101552.22;4895257;29;20686;-41
2021/06/25 11:44:39;;;;;;;1.30;0.57;;;;;;;13.97;67.63;101549.69;4904215;29;20052;-41
2021/06/25 11:47:11;;;;;;;2.58;0.65;;;;;;;13.88;67.59;101550.94;4860647;29;20057;-41
2021/06/25 11:50:16;;;;;;;6.43;1.15;;;;;;;13.75;67.76;101560.44;4906092;29;20830;-42